createdAt,value
2018-10-21T00:02:06.891Z,8.29
2018-10-21T00:04:35.753Z,8.31
2018-10-21T00:07:04.397Z,8.34
2018-10-21T00:09:33.042Z,8.38
2018-10-21T00:12:01.728Z,8.44
2018-10-21T00:14:30.355Z,8.42
2018-10-21T00:16:59.062Z,8.43
2018-10-21T00:19:28.022Z,8.45
2018-10-21T00:21:56.692Z,8.55
2018-10-21T00:24:25.399Z,8.71
2018-10-21T00:26:54.149Z,8.94
2018-10-21T00:29:23.135Z,9.01
2018-10-21T00:31:51.754Z,8.85
2018-10-21T00:34:20.396Z,8.75
2018-10-21T00:36:49.063Z,8.73
2018-10-21T00:39:17.944Z,8.84
2018-10-21T00:41:46.741Z,8.91
2018-10-21T00:44:15.430Z,8.86
2018-10-21T00:46:44.154Z,8.68
2018-10-21T00:49:12.778Z,8.67
2018-10-21T00:51:41.447Z,8.60
2018-10-21T00:54:14.065Z,8.65
2018-10-21T00:56:43.393Z,8.63
2018-10-21T00:59:12.024Z,8.61
2018-10-21T01:01:40.893Z,8.62
2018-10-21T01:04:10.231Z,8.62
2018-10-21T01:06:39.552Z,8.57
2018-10-21T01:09:11.477Z,8.56
2018-10-21T01:11:41.453Z,8.60
2018-10-21T01:14:10.793Z,8.59
2018-10-21T01:16:39.555Z,8.60
2018-10-21T01:19:08.453Z,8.60
2018-10-21T01:21:37.465Z,8.58
2018-10-21T01:24:07.542Z,8.58
2018-10-21T01:26:36.161Z,8.70
2018-10-21T01:29:05.159Z,8.75
2018-10-21T01:31:34.661Z,8.79
2018-10-21T01:34:03.384Z,8.82
2018-10-21T01:36:32.344Z,8.99
2018-10-21T01:39:01.737Z,9.15
2018-10-21T01:41:30.791Z,9.20
2018-10-21T01:43:59.681Z,9.16
2018-10-21T01:46:28.367Z,9.08
2018-10-21T01:48:57.056Z,8.93
2018-10-21T01:51:25.689Z,8.91
2018-10-21T01:53:54.337Z,8.75
2018-10-21T01:56:22.998Z,8.68
2018-10-21T01:58:51.694Z,8.60
2018-10-21T02:01:20.563Z,8.48
2018-10-21T02:03:49.267Z,8.42
2018-10-21T02:06:17.877Z,8.43
2018-10-21T02:08:46.510Z,8.43
2018-10-21T02:11:15.122Z,8.42
2018-10-21T02:13:43.851Z,8.38
2018-10-21T02:16:12.504Z,8.43
2018-10-21T02:18:41.838Z,8.57
2018-10-21T02:21:10.920Z,8.66
2018-10-21T02:23:39.702Z,8.57
2018-10-21T02:26:08.386Z,8.55
2018-10-21T02:28:37.011Z,8.60
2018-10-21T02:31:05.746Z,8.55
2018-10-21T02:33:34.457Z,8.44
2018-10-21T02:36:03.362Z,8.46
2018-10-21T02:38:32.093Z,8.42
2018-10-21T02:41:22.105Z,8.35
2018-10-21T02:43:51.172Z,8.27
2018-10-21T02:46:21.069Z,8.30
2018-10-21T02:48:50.117Z,8.28
2018-10-21T02:51:18.938Z,8.25
2018-10-21T02:53:47.737Z,8.21
2018-10-21T02:56:16.412Z,8.21
2018-10-21T02:58:45.055Z,8.22
2018-10-21T03:01:13.707Z,8.24
2018-10-21T03:03:42.595Z,8.28
2018-10-21T03:06:11.319Z,8.34
2018-10-21T03:08:40.425Z,8.55
2018-10-21T03:11:09.085Z,8.51
2018-10-21T03:13:37.710Z,8.39
2018-10-21T03:16:06.914Z,8.41
2018-10-21T03:18:35.569Z,8.41
2018-10-21T03:21:04.969Z,8.36
2018-10-21T03:23:34.349Z,8.30
2018-10-21T03:26:03.857Z,8.32
2018-10-21T03:28:33.000Z,8.41
2018-10-21T03:31:01.936Z,8.34
2018-10-21T03:33:30.984Z,8.40
2018-10-21T03:35:59.871Z,8.37
2018-10-21T03:38:28.574Z,8.28
2018-10-21T03:40:57.630Z,8.22
2018-10-21T03:43:26.293Z,8.24
2018-10-21T03:45:55.053Z,8.22
2018-10-21T03:48:24.033Z,8.24
2018-10-21T03:50:52.760Z,8.21
2018-10-21T03:53:21.401Z,8.18
2018-10-21T03:55:50.089Z,8.17
2018-10-21T03:58:18.726Z,8.14
2018-10-21T04:00:47.429Z,8.20
2018-10-21T04:03:16.054Z,8.19
2018-10-21T04:05:44.729Z,8.19
2018-10-21T04:08:13.505Z,8.23
2018-10-21T04:10:42.175Z,8.29
2018-10-21T04:13:10.801Z,8.28
2018-10-21T04:15:39.513Z,8.31
2018-10-21T04:18:08.142Z,8.38
2018-10-21T04:20:36.851Z,8.28
2018-10-21T04:23:05.841Z,8.40
2018-10-21T04:25:35.490Z,8.35
2018-10-21T04:28:05.193Z,8.22
2018-10-21T04:30:35.170Z,8.13
2018-10-21T04:34:07.975Z,7.98
2018-10-21T04:36:36.836Z,7.88
2018-10-21T04:39:44.148Z,7.78
2018-10-21T04:42:12.789Z,7.71
2018-10-21T04:44:41.485Z,7.69
2018-10-21T04:47:10.247Z,7.73
2018-10-21T04:49:39.108Z,7.74
2018-10-21T04:52:07.879Z,7.77
2018-10-21T04:54:37.068Z,7.87
2018-10-21T04:57:07.829Z,7.91
2018-10-21T04:59:37.800Z,7.88
2018-10-21T05:02:07.231Z,7.82
2018-10-21T05:04:36.005Z,7.71
2018-10-21T05:07:05.098Z,7.65
2018-10-21T05:09:33.775Z,7.50
2018-10-21T05:12:02.417Z,7.37
2018-10-21T05:14:31.152Z,7.23
2018-10-21T05:16:59.842Z,7.08
2018-10-21T05:19:28.534Z,7.00
2018-10-21T05:21:57.414Z,6.92
2018-10-21T05:24:26.264Z,6.77
2018-10-21T05:26:55.980Z,6.64
2018-10-21T05:29:24.638Z,6.51
2018-10-21T05:31:53.257Z,6.48
2018-10-21T05:34:21.944Z,6.45
2018-10-21T05:36:51.444Z,6.41
2018-10-21T05:39:20.810Z,6.33
2018-10-21T05:41:50.183Z,6.31
2018-10-21T05:44:19.565Z,6.66
2018-10-21T05:46:50.541Z,6.85
2018-10-21T05:49:19.284Z,6.92
2018-10-21T05:51:49.441Z,7.02
2018-10-21T05:54:19.622Z,7.10
2018-10-21T05:56:49.572Z,7.28
2018-10-21T05:59:18.754Z,7.44
2018-10-21T06:01:48.053Z,7.49
2018-10-21T06:04:18.023Z,7.64
2018-10-21T06:06:46.826Z,7.80
2018-10-21T06:09:15.904Z,7.91
2018-10-21T06:11:44.945Z,8.06
2018-10-21T06:14:13.634Z,8.22
2018-10-21T06:16:48.315Z,8.24
2018-10-21T06:19:20.582Z,8.24
2018-10-21T06:21:49.473Z,8.33
2018-10-21T06:24:18.230Z,8.39
2018-10-21T06:26:47.518Z,8.43
2018-10-21T06:29:16.160Z,8.40
2018-10-21T06:31:44.806Z,8.45
2018-10-21T06:34:13.586Z,8.54
2018-10-21T06:36:42.345Z,8.56
2018-10-21T06:39:11.445Z,8.60
2018-10-21T06:41:40.796Z,8.64
2018-10-21T06:44:09.533Z,8.64
2018-10-21T06:46:38.961Z,8.70
2018-10-21T06:49:07.798Z,8.75
2018-10-21T06:51:36.624Z,8.83
2018-10-21T06:54:05.823Z,8.91
2018-10-21T06:56:34.680Z,8.94
2018-10-21T06:59:03.513Z,9.01
2018-10-21T07:01:33.920Z,9.09
2018-10-21T07:04:05.186Z,9.17
2018-10-21T07:06:34.300Z,9.23
2018-10-21T07:09:05.303Z,9.29
2018-10-21T07:11:34.083Z,9.49
2018-10-21T07:14:02.742Z,9.63
2018-10-21T07:16:32.819Z,9.85
2018-10-21T07:19:01.735Z,9.94
2018-10-21T07:21:30.581Z,10.11
2018-10-21T07:23:59.305Z,10.28
2018-10-21T07:26:27.989Z,10.42
2018-10-21T07:28:57.316Z,10.58
2018-10-21T07:31:26.329Z,10.81
2018-10-21T07:33:55.071Z,10.85
2018-10-21T07:36:23.827Z,10.97
2018-10-21T07:38:52.715Z,10.90
2018-10-21T07:41:21.615Z,10.94
2018-10-21T07:43:50.385Z,10.95
2018-10-21T07:46:19.123Z,10.95
2018-10-21T07:48:47.981Z,10.98
2018-10-21T07:51:16.608Z,11.00
2018-10-21T07:53:45.260Z,11.06
2018-10-21T07:56:13.910Z,11.00
2018-10-21T07:58:42.787Z,10.96
2018-10-21T08:01:12.057Z,11.03
2018-10-21T08:03:40.934Z,10.95
2018-10-21T08:06:23.953Z,10.82
2018-10-21T08:08:52.753Z,10.64
2018-10-21T08:11:21.533Z,10.60
2018-10-21T08:13:50.331Z,10.58
2018-10-21T08:16:19.169Z,10.57
2018-10-21T08:18:47.936Z,10.56
2018-10-21T08:21:16.876Z,10.57
2018-10-21T08:23:45.750Z,10.56
2018-10-21T08:26:14.504Z,10.49
2018-10-21T08:28:43.402Z,10.45
2018-10-21T08:31:13.154Z,10.32
2018-10-21T08:33:42.494Z,10.37
2018-10-21T08:36:11.325Z,10.40
2018-10-21T08:38:40.016Z,10.52
2018-10-21T08:41:09.050Z,10.51
2018-10-21T08:43:38.034Z,10.72
2018-10-21T08:46:06.816Z,10.85
2018-10-21T08:48:36.630Z,11.00
2018-10-21T08:51:05.511Z,11.14
2018-10-21T08:53:34.214Z,11.33
2018-10-21T08:56:03.887Z,11.47
2018-10-21T08:58:33.504Z,11.64
2018-10-21T09:01:02.283Z,11.71
2018-10-21T09:03:30.938Z,11.81
2018-10-21T09:05:59.650Z,11.93
2018-10-21T09:08:28.330Z,12.03
2018-10-21T09:10:57.018Z,12.23
2018-10-21T09:13:25.858Z,12.21
2018-10-21T09:15:55.023Z,12.16
2018-10-21T09:18:23.997Z,12.11
2018-10-21T09:20:52.874Z,12.03
2018-10-21T09:23:21.546Z,12.08
2018-10-21T09:25:50.778Z,12.08
2018-10-21T09:28:19.486Z,12.13
2018-10-21T09:30:48.209Z,12.12
2018-10-21T09:33:16.884Z,12.15
2018-10-21T09:35:45.903Z,12.11
2018-10-21T09:38:15.142Z,12.18
2018-10-21T09:40:43.920Z,12.38
2018-10-21T09:43:12.644Z,12.56
2018-10-21T09:45:41.524Z,12.80
2018-10-21T09:48:10.239Z,13.02
2018-10-21T09:50:39.014Z,13.18
2018-10-21T09:53:08.006Z,13.27
2018-10-21T09:55:36.907Z,13.25
2018-10-21T09:58:06.020Z,13.18
2018-10-21T10:00:40.926Z,13.17
2018-10-21T10:03:09.873Z,13.31
2018-10-21T10:05:38.506Z,13.23
2018-10-21T10:08:07.214Z,13.31
2018-10-21T10:10:36.129Z,13.45
2018-10-21T10:13:04.906Z,13.49
2018-10-21T10:15:33.816Z,13.51
2018-10-21T10:18:02.536Z,13.55
2018-10-21T10:20:31.208Z,13.66
2018-10-21T10:22:59.889Z,13.71
2018-10-21T10:25:28.530Z,13.67
2018-10-21T10:27:57.354Z,13.64
2018-10-21T10:30:26.349Z,13.58
2018-10-21T10:32:55.286Z,13.66
2018-10-21T10:35:23.999Z,13.70
2018-10-21T10:37:52.655Z,13.67
2018-10-21T10:40:21.390Z,13.76
2018-10-21T10:42:50.063Z,13.79
2018-10-21T10:45:18.729Z,13.95
2018-10-21T10:47:48.489Z,14.12
2018-10-21T10:50:17.206Z,14.15
2018-10-21T10:52:46.044Z,14.08
2018-10-21T10:55:14.959Z,14.17
2018-10-21T10:57:43.671Z,14.18
2018-10-21T11:00:12.925Z,14.15
2018-10-21T11:02:41.897Z,14.04
2018-10-21T11:05:11.821Z,14.07
2018-10-21T11:07:40.482Z,14.07
2018-10-21T11:10:10.021Z,14.12
2018-10-21T11:12:39.542Z,14.24
2018-10-21T11:15:08.874Z,14.33
2018-10-21T11:17:37.762Z,14.33
2018-10-21T11:20:06.975Z,14.28
2018-10-21T11:22:35.694Z,14.27
2018-10-21T11:25:05.224Z,14.44
2018-10-21T11:27:34.693Z,14.52
2018-10-21T11:30:03.333Z,14.49
2018-10-21T11:32:31.974Z,14.45
2018-10-21T11:35:00.601Z,14.48
2018-10-21T11:37:29.525Z,14.30
2018-10-21T11:39:59.095Z,14.24
2018-10-21T11:42:28.542Z,14.20
2018-10-21T11:44:57.338Z,14.18
2018-10-21T11:47:26.091Z,14.17
2018-10-21T11:49:54.791Z,14.08
2018-10-21T11:52:24.065Z,13.96
2018-10-21T11:54:52.858Z,13.85
2018-10-21T11:57:22.039Z,13.75
2018-10-21T11:59:51.622Z,13.65
2018-10-21T12:02:20.370Z,13.56
2018-10-21T12:04:49.130Z,13.60
2018-10-21T12:07:18.564Z,13.66
2018-10-21T12:09:47.986Z,13.65
2018-10-21T12:12:16.757Z,13.70
2018-10-21T12:14:45.475Z,13.87
2018-10-21T12:17:14.201Z,13.97
2018-10-21T12:19:43.036Z,14.06
2018-10-21T12:22:12.376Z,14.20
2018-10-21T12:24:41.328Z,14.10
2018-10-21T12:27:10.865Z,13.98
2018-10-21T12:29:39.702Z,13.89
2018-10-21T12:32:09.056Z,13.81
2018-10-21T12:34:38.015Z,13.69
2018-10-21T12:37:06.879Z,13.63
2018-10-21T12:39:35.919Z,13.58
2018-10-21T12:42:04.863Z,13.57
2018-10-21T12:44:33.680Z,13.44
2018-10-21T12:47:02.999Z,13.23
2018-10-21T12:49:31.886Z,13.02
2018-10-21T12:52:01.121Z,12.84
2018-10-21T12:54:30.898Z,12.65
2018-10-21T12:56:59.905Z,12.36
2018-10-21T12:59:29.262Z,12.21
2018-10-21T13:01:58.135Z,12.12
2018-10-21T13:04:27.522Z,12.14
2018-10-21T13:06:56.768Z,12.34
2018-10-21T13:09:26.209Z,12.42
2018-10-21T13:11:55.560Z,12.67
2018-10-21T13:14:24.277Z,12.84
2018-10-21T13:16:53.030Z,13.09
2018-10-21T13:19:21.757Z,13.26
2018-10-21T13:21:50.581Z,13.42
2018-10-21T13:24:19.224Z,13.56
2018-10-21T13:26:48.270Z,13.68
2018-10-21T13:29:16.982Z,13.88
2018-10-21T13:31:45.810Z,13.88
2018-10-21T13:34:15.140Z,13.92
2018-10-21T13:36:44.013Z,13.90
2018-10-21T13:39:14.453Z,13.89
2018-10-21T13:41:44.545Z,13.85
2018-10-21T13:44:13.310Z,13.88
2018-10-21T13:46:42.750Z,13.86
2018-10-21T13:49:12.515Z,13.95
2018-10-21T13:51:41.500Z,14.13
2018-10-21T13:54:10.433Z,14.26
2018-10-21T13:56:39.214Z,14.38
2018-10-21T13:59:07.904Z,14.44
2018-10-21T14:01:36.704Z,14.43
2018-10-21T14:04:05.498Z,14.45
2018-10-21T14:06:34.353Z,14.34
2018-10-21T14:09:03.205Z,14.15
2018-10-21T14:11:32.193Z,13.89
2018-10-21T14:14:00.843Z,13.58
2018-10-21T14:16:29.746Z,13.22
2018-10-21T14:18:58.548Z,12.94
2018-10-21T14:21:27.187Z,12.81
2018-10-21T14:23:55.850Z,12.55
2018-10-21T14:26:24.719Z,12.46
2018-10-21T14:28:53.465Z,12.24
2018-10-21T14:31:22.262Z,12.11
2018-10-21T14:33:50.937Z,11.89
2018-10-21T14:36:20.125Z,11.66
2018-10-21T14:38:49.016Z,11.40
2018-10-21T14:41:17.739Z,11.24
2018-10-21T14:43:46.426Z,11.14
2018-10-21T14:46:15.257Z,11.00
2018-10-21T14:48:44.051Z,10.88
2018-10-21T14:51:12.890Z,10.72
2018-10-21T14:53:41.774Z,10.57
2018-10-21T14:56:10.644Z,10.55
2018-10-21T14:58:39.523Z,10.44
2018-10-21T15:01:08.234Z,10.28
2018-10-21T15:03:37.075Z,10.17
2018-10-21T15:06:06.457Z,10.11
2018-10-21T15:08:35.283Z,9.97
2018-10-21T15:11:04.022Z,9.84
2018-10-21T15:13:32.708Z,9.70
2018-10-21T15:16:01.542Z,9.58
2018-10-21T15:18:31.302Z,9.79
2018-10-21T15:21:00.014Z,9.72
2018-10-21T15:23:28.841Z,9.61
2018-10-21T15:25:57.635Z,9.52
2018-10-21T15:28:26.580Z,9.42
2018-10-21T15:30:55.363Z,9.44
2018-10-21T15:33:24.138Z,9.38
2018-10-21T15:35:52.817Z,9.18
2018-10-21T15:38:21.507Z,9.02
2018-10-21T15:40:50.321Z,8.85
2018-10-21T15:43:19.015Z,8.69
2018-10-21T15:45:47.696Z,8.62
2018-10-21T15:48:16.632Z,8.58
2018-10-21T15:50:45.361Z,8.49
2018-10-21T15:53:14.198Z,8.38
2018-10-21T15:55:42.906Z,8.24
2018-10-21T15:58:11.642Z,8.08
2018-10-21T16:00:40.432Z,7.97
2018-10-21T16:03:09.106Z,7.87
2018-10-21T16:05:37.807Z,7.85
2018-10-21T16:08:06.628Z,7.99
2018-10-21T16:10:35.483Z,7.84
2018-10-21T16:13:04.617Z,7.67
2018-10-21T16:15:33.349Z,7.51
2018-10-21T16:18:02.218Z,7.37
2018-10-21T16:20:30.874Z,7.24
2018-10-21T16:22:59.573Z,7.21
2018-10-21T16:25:28.301Z,7.43
2018-10-21T16:27:57.286Z,7.55
2018-10-21T16:30:26.356Z,7.51
2018-10-21T16:32:55.085Z,7.43
2018-10-21T16:35:23.916Z,7.23
2018-10-21T16:37:53.590Z,7.03
2018-10-21T16:40:22.317Z,6.85
2018-10-21T16:42:51.021Z,6.69
2018-10-21T16:45:19.740Z,6.60
2018-10-21T16:47:48.798Z,6.50
2018-10-21T16:50:17.785Z,6.44
2018-10-21T16:52:47.250Z,6.34
2018-10-21T16:55:16.949Z,6.25
2018-10-21T16:57:46.584Z,6.28
2018-10-21T17:00:17.093Z,6.47
2018-10-21T17:02:45.934Z,6.41
2018-10-21T17:05:14.637Z,6.27
2018-10-21T17:07:43.597Z,6.28
2018-10-21T17:10:13.251Z,6.16
2018-10-21T17:12:42.424Z,6.14
2018-10-21T17:15:11.722Z,6.03
2018-10-21T17:17:41.745Z,6.04
2018-10-21T17:20:13.018Z,5.95
2018-10-21T17:22:42.547Z,5.95
2018-10-21T17:25:11.799Z,5.97
2018-10-21T17:27:40.841Z,5.96
2018-10-21T17:30:11.659Z,5.92
2018-10-21T17:32:40.482Z,5.83
2018-10-21T17:35:10.097Z,5.87
2018-10-21T17:37:39.286Z,5.82
2018-10-21T17:40:09.391Z,5.66
2018-10-21T17:42:41.081Z,5.73
2018-10-21T17:45:11.962Z,5.81
2018-10-21T17:47:40.794Z,5.68
2018-10-21T17:50:16.081Z,5.59
2018-10-21T17:52:45.188Z,5.55
2018-10-21T17:55:14.282Z,5.40
2018-10-21T17:57:43.110Z,5.29
2018-10-21T18:00:13.128Z,5.19
2018-10-21T18:02:42.101Z,5.09
2018-10-21T18:05:12.417Z,5.02
2018-10-21T18:07:41.735Z,4.96
2018-10-21T18:10:11.187Z,4.97
2018-10-21T18:12:40.781Z,5.02
2018-10-21T18:15:11.309Z,5.01
2018-10-21T18:17:40.972Z,5.02
2018-10-21T18:20:11.455Z,5.03
2018-10-21T18:22:40.670Z,5.02
2018-10-21T18:25:10.579Z,4.98
2018-10-21T18:27:40.407Z,4.99
2018-10-21T18:30:11.443Z,4.99
2018-10-21T18:32:40.493Z,4.89
2018-10-21T18:35:12.310Z,4.95
2018-10-21T18:37:41.598Z,4.86
2018-10-21T18:40:11.651Z,4.75
2018-10-21T18:42:41.846Z,4.65
2018-10-21T18:45:13.434Z,4.55
2018-10-21T18:47:42.995Z,4.49
2018-10-21T18:50:14.338Z,4.47
2018-10-21T18:52:43.636Z,4.38
2018-10-21T18:55:13.763Z,4.34
2018-10-21T18:57:42.917Z,4.34
2018-10-21T19:00:15.914Z,4.43
2018-10-21T19:02:44.599Z,4.41
2018-10-21T19:05:14.335Z,4.45
2018-10-21T19:07:43.506Z,4.40
2018-10-21T19:10:13.842Z,4.43
2018-10-21T19:12:43.221Z,4.39
2018-10-21T19:15:13.004Z,4.46
2018-10-21T19:17:42.333Z,4.43
2018-10-21T19:20:13.477Z,4.38
2018-10-21T19:22:42.619Z,4.32
2018-10-21T19:25:12.780Z,4.41
2018-10-21T19:27:42.611Z,4.35
2018-10-21T19:30:12.571Z,4.22
2018-10-21T19:32:42.183Z,4.16
2018-10-21T19:35:12.449Z,4.23
2018-10-21T19:37:41.289Z,4.19
2018-10-21T19:40:11.936Z,4.14
2018-10-21T19:42:41.354Z,4.12
2018-10-21T19:45:11.398Z,4.01
2018-10-21T19:47:40.533Z,3.95
2018-10-21T19:50:11.152Z,3.80
2018-10-21T19:52:40.700Z,3.66
2018-10-21T19:55:09.655Z,3.63
2018-10-21T19:57:38.559Z,3.58
2018-10-21T20:00:09.291Z,3.67
2018-10-21T20:02:38.057Z,3.53
2018-10-21T20:05:07.624Z,3.48
2018-10-21T20:07:36.715Z,3.56
2018-10-21T20:10:07.235Z,3.57
2018-10-21T20:12:36.086Z,3.51
2018-10-21T20:15:05.909Z,3.51
2018-10-21T20:17:34.695Z,3.51
2018-10-21T20:20:03.539Z,3.45
2018-10-21T20:22:33.923Z,3.48
2018-10-21T20:25:02.676Z,3.41
2018-10-21T20:27:31.571Z,3.26
2018-10-21T20:30:00.381Z,3.17
2018-10-21T20:32:29.313Z,3.10
2018-10-21T20:34:58.143Z,3.16
2018-10-21T20:37:26.960Z,3.38
2018-10-21T20:39:55.768Z,3.27
2018-10-21T20:42:24.725Z,3.21
2018-10-21T20:44:53.451Z,3.11
2018-10-21T20:47:22.163Z,3.25
2018-10-21T20:49:50.865Z,3.20
2018-10-21T20:52:20.318Z,3.13
2018-10-21T20:54:51.217Z,3.16
2018-10-21T20:57:19.905Z,3.28
2018-10-21T20:59:48.741Z,3.19
2018-10-21T21:02:17.503Z,3.08
2018-10-21T21:04:46.221Z,2.92
2018-10-21T21:07:14.948Z,2.84
2018-10-21T21:09:43.590Z,2.76
2018-10-21T21:12:12.300Z,2.69
2018-10-21T21:14:41.146Z,2.62
2018-10-21T21:17:09.800Z,2.57
2018-10-21T21:19:38.505Z,2.55
2018-10-21T21:22:07.418Z,2.71
2018-10-21T21:24:36.345Z,2.94
2018-10-21T21:27:05.372Z,3.00
2018-10-21T21:29:34.125Z,3.01
2018-10-21T21:32:02.761Z,2.92
2018-10-21T21:34:31.476Z,2.92
2018-10-21T21:37:00.182Z,2.96
2018-10-21T21:39:28.836Z,2.98
2018-10-21T21:41:57.620Z,2.93
2018-10-21T21:44:26.465Z,2.82
2018-10-21T21:46:55.168Z,2.73
2018-10-21T21:49:23.849Z,2.61
2018-10-21T21:51:52.562Z,2.63
2018-10-21T21:54:21.210Z,2.72
2018-10-21T21:56:49.938Z,2.61
2018-10-21T21:59:18.711Z,2.52
2018-10-21T22:01:47.535Z,2.34
2018-10-21T22:04:16.427Z,2.21
2018-10-21T22:06:45.193Z,2.08
2018-10-21T22:09:14.128Z,2.01
2018-10-21T22:11:42.787Z,1.98
2018-10-21T22:14:11.637Z,1.96
2018-10-21T22:16:40.328Z,1.96
2018-10-21T22:19:09.749Z,1.96
2018-10-21T22:21:39.125Z,1.99
2018-10-21T22:24:08.922Z,1.88
2018-10-21T22:26:38.593Z,1.84
2018-10-21T22:29:07.558Z,1.88
2018-10-21T22:31:36.208Z,1.92
2018-10-21T22:34:04.982Z,1.85
2018-10-21T22:36:33.766Z,1.83
2018-10-21T22:39:02.554Z,1.77
2018-10-21T22:41:31.229Z,1.73
2018-10-21T22:43:59.951Z,1.76
2018-10-21T22:46:29.096Z,1.66
2018-10-21T22:48:57.828Z,1.54
2018-10-21T22:51:26.544Z,1.46
2018-10-21T22:53:55.291Z,1.44
2018-10-21T22:56:24.166Z,1.45
2018-10-21T22:58:52.803Z,1.52
2018-10-21T23:01:21.449Z,1.58
2018-10-21T23:03:50.619Z,1.58
2018-10-21T23:06:19.473Z,1.60
2018-10-21T23:08:48.345Z,1.65
2018-10-21T23:11:17.054Z,1.68
2018-10-21T23:13:45.680Z,1.78
2018-10-21T23:16:14.705Z,1.90
2018-10-21T23:18:43.627Z,1.92
2018-10-21T23:21:12.402Z,1.89
2018-10-21T23:23:41.115Z,1.87
2018-10-21T23:26:09.939Z,1.88
2018-10-21T23:28:38.915Z,1.89
2018-10-21T23:31:07.703Z,1.96
2018-10-21T23:33:36.400Z,1.93
2018-10-21T23:36:05.207Z,2.05
2018-10-21T23:38:34.129Z,2.08
2018-10-21T23:41:02.830Z,2.16
2018-10-21T23:43:31.617Z,2.14
2018-10-21T23:46:00.378Z,2.26
2018-10-21T23:48:29.174Z,2.22
2018-10-21T23:50:57.809Z,2.09
2018-10-21T23:53:26.487Z,1.96
2018-10-21T23:55:55.093Z,1.82
2018-10-21T23:58:23.723Z,1.73
